Hovedside
METAR-TAF:

METAR-TAF

Lufthavner :

Ivalo, Finland

Ivalo lufthavn

breddegrad: 68-37N, lengdegrad: 027-25E, høyde over havet: 147 m

Gjeldene værobservasjon

Denne rapporten ble laget for 19 minutter siden, klokken 11:50 UTC
Vind 8 kt fra Sør-sørøst
Temperatur -4°C
Luftfuktighet 86%
Trykk 998 hPa
Sikt 10 km eller mer
Overskyet i en høyde av 3200 ft
lette snøbyger

METAR: EFIV 151150Z 16008KT 9999 -SHSN OVC032 M04/M06 Q0998

Tid: 14:09 (12:09 UTC)

Varsel

Denne rapporten ble laget for 32 minutter siden, klokken 11:37 UTC
Varsel gyldig fra 15. klokken 12 UTC til 15. klokken 17 UTC
Vind 8 kt fra Sør
Sikt 10 km eller mer
Brutte skyer i en høyde av 2500 ft
Midlertidig
fra 15. klokken 12 UTC til 15. klokken 17 UTC
Sikt: 7000 m
lett snø

TAF: EFIV 151137Z 1512/1517 18008KT 9999 BKN025 TEMPO 1512/1517 7000 -SN

Værobservasjoner og værvarsel for over 4000 flyplasser (METAR- og TAF-rapporter).

Tilgjengelige stasjoner er representert av de røde og gule prikkene på kartet.

Hold musepekeren over prikken for å se navnet på stasjonen.

Klikk så for å se værobservasjoner og -varsler.

For å forandre kartet kan du klikke på den grønne knappen med svart kryss for å zoome inn, på den grønne knappen med strek for å zoome ut, eller på de grønne pilene for å se tilstøtende kart.


METAR-TAF: